Terminal Aerodrome Forecast
Issued by NWS Wilmington, OH

Current Version | Previous Version | Graphics & Text | Print | Product List | Glossary On
Versions: 1 2 3 4 5 6 7 8 9 10 11 12 13 14 15 16
000
FTUS41 KILN 302200 AAA
TAFDAY
TAF AMD
KDAY 302211Z 3022/0118 21012KT P6SM SCT030 BKN050
     FM010100 26007KT P6SM SCT050
     FM010900 28004KT 5SM BR FEW020
     FM011300 30006KT P6SM SCT025
      TEMPO 0114/0118 BKN025=

USA.gov is the U.S. government's official web portal to all federal, state and local government web resources and services.